Time,TemperatureF,DewpointF,PressureIn,WindDirection,WindDirectionDegrees,WindSpeedMPH,WindSpeedGustMPH,Humidity,HourlyPrecipIn,Conditions,Clouds,dailyrainin,SolarRadiationWatts/m^2,SoftwareType,DateUTC
2013-04-10 00:02:00,26.0,12.0,-100.00,NNW,345,5.0,29.0,54,0.00,,,0.00,0.000000,,2013-04-10 07:02:00,
2013-04-10 00:43:00,26.0,10.0,-100.00,NNW,327,0.0,0.0,51,0.00,,,0.00,0.000000,,2013-04-10 07:43:00,
2013-04-10 00:52:00,26.0,10.0,-100.00,NNW,327,0.0,0.0,51,0.00,,,0.00,0.000000,,2013-04-10 07:52:00,
2013-04-10 01:02:00,26.0,10.0,-100.00,NNW,327,0.0,0.0,51,0.00,,,0.00,0.000000,,2013-04-10 08:02:00,
2013-04-10 01:11:00,26.0,10.0,-100.00,NNW,327,0.0,0.0,51,0.00,,,0.00,0.000000,,2013-04-10 08:11:00,
2013-04-10 01:12:00,26.0,9.0,-100.00,NW,319,11.0,32.0,49,0.00,,,0.00,0.000000,,2013-04-10 08:12:00,
2013-04-10 01:42:00,26.0,9.0,-100.00,NW,319,11.0,32.0,49,0.00,,,0.00,0.000000,,2013-04-10 08:42:00,
2013-04-10 01:52:00,26.0,9.0,-100.00,NW,319,11.0,32.0,49,0.00,,,0.00,0.000000,,2013-04-10 08:52:00,
2013-04-10 02:02:00,26.0,9.0,-100.00,NW,319,11.0,32.0,49,0.00,,,0.00,0.000000,,2013-04-10 09:02:00,
2013-04-10 02:12:00,26.0,9.0,-100.00,WNW,290,0.0,0.0,47,0.00,,,0.00,0.000000,,2013-04-10 09:12:00,
2013-04-10 02:43:00,26.0,9.0,-100.00,WNW,290,0.0,0.0,47,0.00,,,0.00,0.000000,,2013-04-10 09:43:00,
2013-04-10 02:53:00,26.0,9.0,-100.00,WNW,290,0.0,0.0,47,0.00,,,0.00,0.000000,,2013-04-10 09:53:00,
2013-04-10 03:02:00,26.0,9.0,-100.00,WNW,290,0.0,0.0,47,0.00,,,0.00,0.000000,,2013-04-10 10:02:00,
2013-04-10 03:12:00,26.0,6.0,-100.00,NW,312,0.0,0.0,42,0.00,,,0.00,0.000000,,2013-04-10 10:12:00,
2013-04-10 03:33:00,26.0,6.0,-100.00,NW,312,0.0,0.0,42,0.00,,,0.00,0.000000,,2013-04-10 10:33:00,
2013-04-10 03:43:00,26.0,6.0,-100.00,NW,312,0.0,0.0,42,0.00,,,0.00,0.000000,,2013-04-10 10:43:00,
2013-04-10 03:52:00,26.0,6.0,-100.00,NW,312,0.0,0.0,42,0.00,,,0.00,0.000000,,2013-04-10 10:52:00,
2013-04-10 04:02:00,26.0,6.0,-100.00,NW,312,0.0,0.0,42,0.00,,,0.00,0.000000,,2013-04-10 11:02:00,
2013-04-10 06:12:00,24.0,6.0,-100.00,WNW,291,4.0,15.0,46,-99.99,,,0.00,1.000000,,2013-04-10 13:12:00,
2013-04-10 06:32:00,24.0,6.0,-100.00,WNW,291,4.0,15.0,46,-99.99,,,0.00,1.000000,,2013-04-10 13:32:00,
2013-04-10 06:43:00,24.0,6.0,-100.00,WNW,291,4.0,15.0,46,-99.99,,,0.00,1.000000,,2013-04-10 13:43:00,
2013-04-10 06:53:00,24.0,6.0,-100.00,WNW,291,4.0,15.0,46,-99.99,,,0.00,1.000000,,2013-04-10 13:53:00,
2013-04-10 07:02:00,24.0,6.0,-100.00,WNW,291,4.0,15.0,46,-99.99,,,0.00,1.000000,,2013-04-10 14:02:00,
2013-04-10 07:12:00,29.0,7.0,-100.00,NE,56,5.0,13.0,39,0.00,,,0.00,148.000000,,2013-04-10 14:12:00,
2013-04-10 07:33:00,29.0,7.0,-100.00,NE,56,5.0,13.0,39,0.00,,,0.00,148.000000,,2013-04-10 14:33:00,
2013-04-10 07:42:00,29.0,7.0,-100.00,NE,56,5.0,13.0,39,0.00,,,0.00,148.000000,,2013-04-10 14:42:00,
2013-04-10 07:52:00,29.0,7.0,-100.00,NE,56,5.0,13.0,39,0.00,,,0.00,148.000000,,2013-04-10 14:52:00,
2013-04-10 08:02:00,29.0,7.0,-100.00,NE,56,5.0,13.0,39,0.00,,,0.00,148.000000,,2013-04-10 15:02:00,
2013-04-10 09:12:00,37.0,15.0,-100.00,ESE,111,3.0,11.0,40,-99.99,,,0.00,589.000000,,2013-04-10 16:12:00,
2013-04-10 09:33:00,37.0,15.0,-100.00,ESE,111,3.0,11.0,40,-99.99,,,0.00,589.000000,,2013-04-10 16:33:00,
2013-04-10 09:43:00,37.0,15.0,-100.00,ESE,111,3.0,11.0,40,-99.99,,,0.00,589.000000,,2013-04-10 16:43:00,
2013-04-10 09:53:00,37.0,15.0,-100.00,ESE,111,3.0,11.0,40,-99.99,,,0.00,589.000000,,2013-04-10 16:53:00,
2013-04-10 10:02:00,37.0,15.0,-100.00,ESE,111,3.0,11.0,40,-99.99,,,0.00,589.000000,,2013-04-10 17:02:00,
2013-04-10 10:12:00,35.0,7.0,-100.00,WNW,294,7.0,19.0,31,0.00,,,0.00,746.000000,,2013-04-10 17:12:00,
2013-04-10 10:34:00,35.0,7.0,-100.00,WNW,294,7.0,19.0,31,0.00,,,0.00,746.000000,,2013-04-10 17:34:00,
2013-04-10 10:43:00,35.0,7.0,-100.00,WNW,294,7.0,19.0,31,0.00,,,0.00,746.000000,,2013-04-10 17:43:00,
2013-04-10 10:52:00,35.0,7.0,-100.00,WNW,294,7.0,19.0,31,0.00,,,0.00,746.000000,,2013-04-10 17:52:00,
2013-04-10 11:02:00,35.0,7.0,-100.00,WNW,294,7.0,19.0,31,0.00,,,0.00,746.000000,,2013-04-10 18:02:00,
2013-04-10 11:12:00,36.0,14.0,-100.00,WNW,294,5.0,19.0,40,0.00,,,0.00,777.000000,,2013-04-10 18:12:00,
2013-04-10 11:43:00,36.0,14.0,-100.00,WNW,294,5.0,19.0,40,0.00,,,0.00,777.000000,,2013-04-10 18:43:00,
2013-04-10 11:52:00,36.0,14.0,-100.00,WNW,294,5.0,19.0,40,0.00,,,0.00,777.000000,,2013-04-10 18:52:00,
2013-04-10 12:02:00,36.0,14.0,-100.00,WNW,294,5.0,19.0,40,0.00,,,0.00,777.000000,,2013-04-10 19:02:00,
2013-04-10 12:12:00,38.0,16.0,-100.00,WNW,295,2.0,20.0,41,0.00,,,0.00,914.000000,,2013-04-10 19:12:00,
2013-04-10 12:42:00,38.0,16.0,-100.00,WNW,295,2.0,20.0,41,0.00,,,0.00,914.000000,,2013-04-10 19:42:00,
2013-04-10 12:53:00,38.0,16.0,-100.00,WNW,295,2.0,20.0,41,0.00,,,0.00,914.000000,,2013-04-10 19:53:00,
2013-04-10 13:02:00,38.0,16.0,-100.00,WNW,295,2.0,20.0,41,0.00,,,0.00,914.000000,,2013-04-10 20:02:00,
2013-04-10 13:12:00,40.0,18.0,-100.00,WNW,293,4.0,17.0,41,0.00,,,0.00,586.000000,,2013-04-10 20:12:00,
2013-04-10 13:33:00,40.0,18.0,-100.00,WNW,293,4.0,17.0,41,0.00,,,0.00,586.000000,,2013-04-10 20:33:00,
2013-04-10 13:42:00,40.0,18.0,-100.00,WNW,293,4.0,17.0,41,0.00,,,0.00,586.000000,,2013-04-10 20:42:00,
2013-04-10 13:52:00,40.0,18.0,-100.00,WNW,293,4.0,17.0,41,0.00,,,0.00,586.000000,,2013-04-10 20:52:00,
2013-04-10 14:02:00,40.0,18.0,-100.00,WNW,293,4.0,17.0,41,0.00,,,0.00,586.000000,,2013-04-10 21:02:00,
2013-04-10 14:12:00,42.0,19.0,-100.00,WNW,297,3.0,20.0,39,0.00,,,0.00,195.000000,,2013-04-10 21:12:00,
2013-04-10 14:43:00,42.0,19.0,-100.00,WNW,297,3.0,20.0,39,0.00,,,0.00,195.000000,,2013-04-10 21:43:00,
2013-04-10 14:53:00,42.0,19.0,-100.00,WNW,297,3.0,20.0,39,0.00,,,0.00,195.000000,,2013-04-10 21:53:00,
2013-04-10 15:03:00,42.0,19.0,-100.00,WNW,297,3.0,20.0,39,0.00,,,0.00,195.000000,,2013-04-10 22:03:00,
2013-04-10 15:12:00,44.0,18.0,-100.00,WNW,298,2.0,18.0,35,0.00,,,0.00,693.000000,,2013-04-10 22:12:00,
2013-04-10 15:34:00,44.0,18.0,-100.00,WNW,298,2.0,18.0,35,0.00,,,0.00,693.000000,,2013-04-10 22:34:00,
2013-04-10 15:43:00,44.0,18.0,-100.00,WNW,298,2.0,18.0,35,0.00,,,0.00,693.000000,,2013-04-10 22:43:00,
2013-04-10 15:53:00,44.0,18.0,-100.00,WNW,298,2.0,18.0,35,0.00,,,0.00,693.000000,,2013-04-10 22:53:00,
2013-04-10 16:02:00,44.0,18.0,-100.00,WNW,298,2.0,18.0,35,0.00,,,0.00,693.000000,,2013-04-10 23:02:00,
2013-04-10 16:33:00,44.0,17.0,-100.00,WNW,298,18.0,29.0,33,0.00,,,0.00,535.000000,,2013-04-10 23:33:00,
2013-04-10 16:43:00,44.0,17.0,-100.00,WNW,298,18.0,29.0,33,0.00,,,0.00,535.000000,,2013-04-10 23:43:00,
2013-04-10 16:52:00,44.0,17.0,-100.00,WNW,298,18.0,29.0,33,0.00,,,0.00,535.000000,,2013-04-10 23:52:00,
2013-04-10 17:02:00,44.0,17.0,-100.00,WNW,298,18.0,29.0,33,0.00,,,0.00,535.000000,,2013-04-11 00:02:00,
2013-04-10 17:11:00,44.0,17.0,-100.00,WNW,298,18.0,29.0,33,0.00,,,0.00,535.000000,,2013-04-11 00:11:00,
2013-04-10 17:12:00,43.0,12.0,-100.00,WNW,300,17.0,26.0,28,0.00,,,0.00,262.000000,,2013-04-11 00:12:00,
2013-04-10 17:42:00,43.0,12.0,-100.00,WNW,300,17.0,26.0,28,0.00,,,0.00,262.000000,,2013-04-11 00:42:00,
2013-04-10 17:53:00,43.0,12.0,-100.00,WNW,300,17.0,26.0,28,0.00,,,0.00,262.000000,,2013-04-11 00:53:00,
2013-04-10 18:02:00,43.0,12.0,-100.00,WNW,300,17.0,26.0,28,0.00,,,0.00,262.000000,,2013-04-11 01:02:00,
2013-04-10 18:12:00,42.0,17.0,-100.00,WNW,289,11.0,21.0,36,0.00,,,0.00,153.000000,,2013-04-11 01:12:00,
2013-04-10 18:42:00,42.0,17.0,-100.00,WNW,289,11.0,21.0,36,0.00,,,0.00,153.000000,,2013-04-11 01:42:00,
2013-04-10 18:52:00,42.0,17.0,-100.00,WNW,289,11.0,21.0,36,0.00,,,0.00,153.000000,,2013-04-11 01:52:00,
2013-04-10 19:02:00,42.0,17.0,-100.00,WNW,289,11.0,21.0,36,0.00,,,0.00,153.000000,,2013-04-11 02:02:00,
2013-04-10 19:12:00,40.0,18.0,-100.00,WNW,283,10.0,19.0,41,0.00,,,0.00,18.000000,,2013-04-11 02:12:00,
2013-04-10 19:52:00,40.0,18.0,-100.00,WNW,283,10.0,19.0,41,0.00,,,0.00,18.000000,,2013-04-11 02:52:00,
2013-04-10 20:02:00,40.0,18.0,-100.00,WNW,283,10.0,19.0,41,0.00,,,0.00,18.000000,,2013-04-11 03:02:00,
2013-04-10 20:12:00,39.0,18.0,-100.00,WSW,255,8.0,15.0,43,0.00,,,0.00,0.000000,,2013-04-11 03:12:00,
2013-04-10 20:43:00,39.0,18.0,-100.00,WSW,255,8.0,15.0,43,0.00,,,0.00,0.000000,,2013-04-11 03:43:00,
2013-04-10 20:53:00,39.0,18.0,-100.00,WSW,255,8.0,15.0,43,0.00,,,0.00,0.000000,,2013-04-11 03:53:00,
2013-04-10 21:03:00,39.0,18.0,-100.00,WSW,255,8.0,15.0,43,0.00,,,0.00,0.000000,,2013-04-11 04:03:00,
2013-04-10 21:12:00,38.0,19.0,-100.00,West,272,10.0,17.0,46,0.00,,,0.00,0.000000,,2013-04-11 04:12:00,
2013-04-10 21:43:00,38.0,19.0,-100.00,West,272,10.0,17.0,46,0.00,,,0.00,0.000000,,2013-04-11 04:43:00,
2013-04-10 21:53:00,38.0,19.0,-100.00,West,272,10.0,17.0,46,0.00,,,0.00,0.000000,,2013-04-11 04:53:00,
2013-04-10 22:02:00,38.0,19.0,-100.00,West,272,10.0,17.0,46,0.00,,,0.00,0.000000,,2013-04-11 05:02:00,
2013-04-10 22:12:00,39.0,23.0,-100.00,West,269,0.0,21.0,52,0.00,,,0.00,0.000000,,2013-04-11 05:12:00,
2013-04-10 22:42:00,39.0,23.0,-100.00,West,269,0.0,21.0,52,0.00,,,0.00,0.000000,,2013-04-11 05:42:00,
2013-04-10 22:52:00,39.0,23.0,-100.00,West,269,0.0,21.0,52,0.00,,,0.00,0.000000,,2013-04-11 05:52:00,
2013-04-10 23:02:00,39.0,23.0,-100.00,West,269,0.0,21.0,52,0.00,,,0.00,0.000000,,2013-04-11 06:02:00,
2013-04-10 23:12:00,38.0,23.0,-100.00,WSW,248,12.0,26.0,55,0.00,,,0.00,0.000000,,2013-04-11 06:12:00,
2013-04-10 23:42:00,38.0,23.0,-100.00,WSW,248,12.0,26.0,55,0.00,,,0.00,0.000000,,2013-04-11 06:42:00,
2013-04-10 23:52:00,38.0,23.0,-100.00,WSW,248,12.0,26.0,55,0.00,,,0.00,0.000000,,2013-04-11 06:52:00,